Time;durP1;ratioP1;P1;durP2;ratioP2;P2;SDS_P1;SDS_P2;PMS_P1;PMS_P2;Temp;Humidity;BMP_temperature;BMP_pressure;BME280_temperature;BME280_humidity;BME280_pressure;Samples;Min_cycle;Max_cycle;Signal;HPM_P1;HPM_P2
2020/12/25 00:02:06;;;;;;;;;;;;;;;0.80;100.00;100452.50;5093269;28;20022;-74
2020/12/25 00:04:33;;;;;;;;;;;;;;;0.80;100.00;100465.44;5093543;28;20016;-75
2020/12/25 00:07:00;;;;;;;;;;;;;;;0.83;100.00;100453.78;5058915;28;19925;-74
2020/12/25 00:09:26;;;;;;;;;;;;;;;0.79;100.00;100453.63;5093482;28;20268;-75
2020/12/25 00:11:53;;;;;;;;;;;;;;;0.91;100.00;100453.75;5075472;28;19930;-75
2020/12/25 00:14:19;;;;;;;;;;;;;;;0.93;100.00;100451.50;5092719;28;19931;-75
2020/12/25 00:16:45;;;;;;;;;;;;;;;0.85;100.00;100471.59;5093099;28;20310;-75
2020/12/25 00:19:12;;;;;;;;;;;;;;;0.88;100.00;100465.44;5093156;28;19935;-74
2020/12/25 00:21:38;;;;;;;;;;;;;;;0.82;100.00;100477.72;5093278;28;20279;-75
2020/12/25 00:24:05;;;;;;;;;;;;;;;0.81;100.00;100469.81;5093184;28;19931;-74
2020/12/25 00:26:32;;;;;;;;;;;;;;;0.73;100.00;100474.19;5075245;28;20378;-75
2020/12/25 00:29:00;;;;;;;;;;;;;;;0.69;100.00;100480.66;5093262;28;19924;-74
2020/12/25 00:31:26;;;;;;;;;;;;;;;0.70;100.00;100485.84;5092907;28;19931;-75
2020/12/25 00:33:53;;;;;;;;;;;;;;;0.70;100.00;100485.84;5093164;28;19924;-75
2020/12/25 00:36:27;;;;;;;;;;;;;;;0.65;100.00;100494.25;5075078;28;19924;-74
2020/12/25 00:38:54;;;;;;;;;;;;;;;0.65;100.00;100488.75;5092873;28;19924;-74
2020/12/25 00:41:21;;;;;;;;;;;;;;;0.63;100.00;100496.53;5093220;28;20461;-75
2020/12/25 00:43:48;;;;;;;;;;;;;;;0.62;100.00;100497.66;5093182;28;19924;-74
2020/12/25 00:46:15;;;;;;;;;;;;;;;0.53;100.00;100512.53;5092987;28;19924;-75
2020/12/25 00:48:42;;;;;;;;;;;;;;;0.42;100.00;100501.06;5075183;28;19928;-74
2020/12/25 00:51:12;;;;;;;;;;;;;;;0.35;100.00;100511.69;5075117;28;19928;-74
2020/12/25 00:53:39;;;;;;;;;;;;;;;0.36;100.00;100518.03;5075128;28;20011;-75
2020/12/25 00:56:06;;;;;;;;;;;;;;;0.44;100.00;100509.78;5074956;28;19931;-75
2020/12/25 00:58:33;;;;;;;;;;;;;;;0.38;100.00;100513.81;5074858;28;20402;-74
2020/12/25 01:00:59;;;;;;;;;;;;;;;0.40;100.00;100527.22;5074606;28;19924;-72
2020/12/25 01:03:26;;;;;;;;;;;;;;;0.40;100.00;100524.47;5092813;28;19925;-74
2020/12/25 01:05:52;;;;;;;;;;;;;;;0.39;100.00;100509.94;5092976;28;20352;-74
2020/12/25 01:08:19;;;;;;;;;;;;;;;0.38;100.00;100510.28;5074883;28;19925;-74
2020/12/25 01:10:45;;;;;;;;;;;;;;;0.40;100.00;100506.06;5092898;28;19924;-75
2020/12/25 01:13:12;;;;;;;;;;;;;;;0.35;100.00;100511.69;5092672;28;19928;-75
2020/12/25 01:15:39;;;;;;;;;;;;;;;0.34;100.00;100499.09;5074643;28;20321;-74
2020/12/25 01:18:07;;;;;;;;;;;;;;;0.44;100.00;100518.03;5074533;28;20297;-75
2020/12/25 01:20:35;;;;;;;;;;;;;;;0.44;100.00;100506.22;5092838;28;20286;-74
2020/12/25 01:23:02;;;;;;;;;;;;;;;0.42;100.00;100516.72;5092646;28;19928;-75
2020/12/25 01:25:29;;;;;;;;;;;;;;;0.40;100.00;100503.31;5095203;28;19978;-74
2020/12/25 01:27:55;;;;;;;;;;;;;;;0.39;100.00;100509.94;5096121;28;19934;-74
2020/12/25 01:30:22;;;;;;;;;;;;;;;0.38;100.00;100510.28;5096445;28;19935;-75
2020/12/25 01:32:48;;;;;;;;;;;;;;;0.34;100.00;100499.09;5096445;28;20302;-74
2020/12/25 01:35:15;;;;;;;;;;;;;;;0.33;100.00;100516.72;5096407;28;19973;-75
2020/12/25 01:37:41;;;;;;;;;;;;;;;0.37;100.00;100514.94;5096315;28;20582;-74
2020/12/25 01:40:08;;;;;;;;;;;;;;;0.45;100.00;100511.41;5096193;28;19930;-75
2020/12/25 01:42:35;;;;;;;;;;;;;;;0.39;100.00;100509.94;5078024;28;20338;-75
2020/12/25 01:45:02;;;;;;;;;;;;;;;0.47;100.00;100500.88;5096350;28;20433;-75
2020/12/25 01:47:29;;;;;;;;;;;;;;;0.44;100.00;100504.28;5096054;28;20303;-75
2020/12/25 01:49:56;;;;;;;;;;;;;;;0.34;100.00;100504.59;5096250;28;20374;-75
2020/12/25 01:52:23;;;;;;;;;;;;;;;0.33;100.00;100513.97;5096021;28;20397;-74
2020/12/25 01:54:50;;;;;;;;;;;;;;;0.47;100.00;100506.38;5096077;28;20513;-75
2020/12/25 01:57:17;;;;;;;;;;;;;;;0.41;100.00;100521.41;5095461;28;20317;-75
2020/12/25 01:59:44;;;;;;;;;;;;;;;0.44;100.00;100509.78;5077682;28;20375;-75
2020/12/25 02:02:11;;;;;;;;;;;;;;;0.37;100.00;100505.88;5095812;28;19924;-75
2020/12/25 02:04:49;;;;;;;;;;;;;;;0.35;100.00;100506.19;5095874;28;20371;-75
2020/12/25 02:07:15;;;;;;;;;;;;;;;0.34;100.00;100493.59;5095862;28;20393;-75
2020/12/25 02:09:42;;;;;;;;;;;;;;;0.25;100.00;100495.53;5095705;28;20023;-75
2020/12/25 02:12:08;;;;;;;;;;;;;;;0.29;100.00;100496.47;5095257;28;20018;-72
2020/12/25 02:14:35;;;;;;;;;;;;;;;0.23;100.00;100497.78;5095634;28;20294;-75
2020/12/25 02:17:02;;;;;;;;;;;;;;;0.28;100.00;100494.88;5077210;28;20390;-74
2020/12/25 02:19:28;;;;;;;;;;;;;;;0.36;100.00;100487.78;5095601;28;20033;-74
2020/12/25 02:21:55;;;;;;;;;;;;;;;0.35;100.00;100488.91;5095301;28;20393;-74
2020/12/25 02:24:21;;;;;;;;;;;;;;;0.35;100.00;100483.41;5095410;28;19927;-74
2020/12/25 02:26:48;;;;;;;;;;;;;;;0.32;100.00;100478.56;5076961;28;19924;-75
2020/12/25 02:29:14;;;;;;;;;;;;;;;0.25;100.00;100479.03;5095335;28;19946;-74
2020/12/25 02:31:41;;;;;;;;;;;;;;;0.22;100.00;100474.16;5060852;28;19924;-75
2020/12/25 02:34:08;;;;;;;;;;;;;;;0.24;100.00;100482.91;5077508;28;19924;-75
2020/12/25 02:36:35;;;;;;;;;;;;;;;0.18;100.00;100475.13;5076663;28;19931;-75
2020/12/25 02:39:02;;;;;;;;;;;;;;;0.29;100.00;100471.75;5095088;28;19928;-75
2020/12/25 02:41:29;;;;;;;;;;;;;;;0.33;100.00;100475.50;5094767;28;19924;-75
2020/12/25 02:43:55;;;;;;;;;;;;;;;0.34;100.00;100484.53;5095058;28;19924;-74
2020/12/25 02:46:22;;;;;;;;;;;;;;;0.37;100.00;100475.63;5095126;28;19928;-74
2020/12/25 02:48:48;;;;;;;;;;;;;;;0.38;100.00;100485.53;5094993;28;20019;-74
2020/12/25 02:51:18;;;;;;;;;;;;;;;0.40;100.00;100475.00;5094783;28;20493;-74
2020/12/25 02:53:45;;;;;;;;;;;;;;;0.33;100.00;100475.50;5094774;28;19931;-74
2020/12/25 02:56:15;;;;;;;;;;;;;;;0.38;100.00;100486.31;5094536;28;19963;-74
2020/12/25 02:58:42;;;;;;;;;;;;;;;0.36;100.00;100488.59;5094789;28;19935;-74
2020/12/25 03:01:09;;;;;;;;;;;;;;;0.32;100.00;100498.59;5094593;28;19932;-74
2020/12/25 03:03:35;;;;;;;;;;;;;;;0.29;100.00;100491.00;5076665;28;19928;-74
2020/12/25 03:06:02;;;;;;;;;;;;;;;0.24;100.00;100495.84;5094719;28;19928;-75
2020/12/25 03:08:28;;;;;;;;;;;;;;;0.25;100.00;100502.94;5076283;28;19973;-74
2020/12/25 03:10:55;;;;;;;;;;;;;;;0.19;100.00;100491.31;5076382;28;19930;-74
2020/12/25 03:13:21;;;;;;;;;;;;;;;0.10;100.00;100498.72;5094492;28;19935;-74
2020/12/25 03:15:48;;;;;;;;;;;;;;;0.08;100.00;100492.72;5094469;28;19930;-74
2020/12/25 03:18:15;;;;;;;;;;;;;;;0.09;100.00;100496.31;5094317;28;19924;-74
2020/12/25 03:20:41;;;;;;;;;;;;;;;0.00;100.00;100496.28;5076460;28;19939;-74
2020/12/25 03:23:08;;;;;;;;;;;;;;;-0.08;100.00;100502.56;5076330;28;19924;-74
2020/12/25 03:25:34;;;;;;;;;;;;;;;-0.13;100.00;100506.25;5093895;28;19925;-74
2020/12/25 03:28:01;;;;;;;;;;;;;;;-0.16;100.00;100503.34;5094131;28;19924;-74
2020/12/25 03:30:28;;;;;;;;;;;;;;;-0.07;100.00;100488.50;5110081;28;19924;-74
2020/12/25 03:32:55;;;;;;;;;;;;;;;-0.07;100.00;100494.00;5093999;28;20313;-74
2020/12/25 03:35:21;;;;;;;;;;;;;;;-0.10;100.00;100488.31;5094080;28;19938;-74
2020/12/25 03:37:48;;;;;;;;;;;;;;;-0.12;100.00;100491.38;5094078;28;19924;-74
2020/12/25 03:40:14;;;;;;;;;;;;;;;-0.21;100.00;100487.00;5093502;28;19930;-74
2020/12/25 03:42:43;;;;;;;;;;;;;;;-0.25;100.00;100491.50;5093902;28;19924;-74
2020/12/25 03:45:09;;;;;;;;;;;;;;;-0.24;100.00;100479.38;5093802;28;20397;-74
2020/12/25 03:47:36;;;;;;;;;;;;;;;-0.21;100.00;100476.81;5093281;28;20018;-74
2020/12/25 03:50:03;;;;;;;;;;;;;;;-0.22;100.00;100466.97;5075521;28;19928;-74
2020/12/25 03:52:29;;;;;;;;;;;;;;;-0.18;100.00;100475.34;5093986;28;19924;-74
2020/12/25 03:54:56;;;;;;;;;;;;;;;-0.15;100.00;100466.47;5075453;28;20015;-74
2020/12/25 03:57:22;;;;;;;;;;;;;;;-0.06;100.00;100473.63;5059129;28;19927;-74
2020/12/25 03:59:48;;;;;;;;;;;;;;;-0.08;100.00;100481.38;5093623;28;19924;-74
2020/12/25 04:02:15;;;;;;;;;;;;;;;-0.02;100.00;100485.59;5075377;28;20018;-74
2020/12/25 04:04:42;;;;;;;;;;;;;;;-0.10;100.00;100488.31;5093515;28;19928;-74
2020/12/25 04:07:08;;;;;;;;;;;;;;;-0.15;100.00;100491.19;5093411;28;19931;-74
2020/12/25 04:09:35;;;;;;;;;;;;;;;-0.11;100.00;100492.22;5093644;28;19924;-74
2020/12/25 04:12:01;;;;;;;;;;;;;;;-0.16;100.00;100500.59;5093556;28;19928;-74
2020/12/25 04:14:28;;;;;;;;;;;;;;;-0.27;100.00;100491.81;5093592;28;19924;-74
2020/12/25 04:16:54;;;;;;;;;;;;;;;-0.34;100.00;100490.66;5075507;28;19949;-75
2020/12/25 04:19:20;;;;;;;;;;;;;;;-0.36;100.00;100485.50;5093228;28;19924;-74
2020/12/25 04:21:47;;;;;;;;;;;;;;;-0.41;100.00;100482.88;5093131;28;19924;-74
2020/12/25 04:24:14;;;;;;;;;;;;;;;-0.38;100.00;100489.69;5075198;28;19924;-74
2020/12/25 04:26:44;;;;;;;;;;;;;;;-0.31;100.00;100490.03;5093073;28;19924;-74
2020/12/25 04:29:11;;;;;;;;;;;;;;;-0.21;100.00;100481.50;5093168;28;19931;-74
2020/12/25 04:31:37;;;;;;;;;;;;;;;-0.27;100.00;100491.81;5058590;28;19970;-74
2020/12/25 04:34:04;;;;;;;;;;;;;;;-0.24;100.00;100493.13;5092911;28;20019;-74
2020/12/25 04:36:30;;;;;;;;;;;;;;;-0.23;100.00;100497.50;5074920;28;20294;-74
2020/12/25 04:38:57;;;;;;;;;;;;;;;-0.21;100.00;100506.22;5092884;28;20420;-74
2020/12/25 04:41:23;;;;;;;;;;;;;;;-0.20;100.00;100510.59;5093175;28;20009;-74
2020/12/25 04:43:51;;;;;;;;;;;;;;;-0.30;100.00;100506.19;5075292;28;19931;-74
2020/12/25 04:46:18;;;;;;;;;;;;;;;-0.35;100.00;100517.31;5092946;28;20339;-74
2020/12/25 04:48:45;;;;;;;;;;;;;;;-0.30;100.00;100525.41;5092933;28;19924;-74
2020/12/25 04:51:11;;;;;;;;;;;;;;;-0.26;100.00;100522.88;5092614;28;19928;-74
2020/12/25 04:53:37;;;;;;;;;;;;;;;-0.33;100.00;100517.00;5092863;28;19959;-74
2020/12/25 04:56:04;;;;;;;;;;;;;;;-0.31;100.00;100526.56;5092851;28;19928;-74
2020/12/25 04:58:30;;;;;;;;;;;;;;;-0.32;100.00;100521.38;5092782;28;19924;-74
2020/12/25 05:01:11;;;;;;;;;;;;;;;-0.31;100.00;100523.00;5096194;28;19977;-74
2020/12/25 05:03:38;;;;;;;;;;;;;;;-0.36;100.00;100523.94;5096989;28;19931;-74
2020/12/25 05:06:12;;;;;;;;;;;;;;;-0.34;100.00;100534.63;5096649;28;19924;-74
2020/12/25 05:08:40;;;;;;;;;;;;;;;-0.28;100.00;100530.59;5097477;28;20279;-74
2020/12/25 05:11:07;;;;;;;;;;;;;;;-0.29;100.00;100529.00;5112534;28;20294;-74
2020/12/25 05:13:34;;;;;;;;;;;;;;;-0.26;100.00;100517.38;5078679;28;19973;-74
2020/12/25 05:16:01;;;;;;;;;;;;;;;-0.28;100.00;100530.59;5096936;28;19924;-74
2020/12/25 05:18:29;;;;;;;;;;;;;;;-0.19;100.00;100537.75;5078454;28;19924;-74
2020/12/25 05:20:58;;;;;;;;;;;;;;;-0.16;100.00;100539.06;5096612;28;19924;-74
2020/12/25 05:23:30;;;;;;;;;;;;;;;-0.14;100.00;100532.09;5096660;28;19933;-74
2020/12/25 05:25:58;;;;;;;;;;;;;;;-0.18;100.00;100530.31;5078442;28;19924;-74
2020/12/25 05:28:26;;;;;;;;;;;;;;;-0.21;100.00;100522.69;5078514;28;19924;-74
2020/12/25 05:30:52;;;;;;;;;;;;;;;-0.24;100.00;100526.09;5096475;28;19928;-74
2020/12/25 05:33:21;;;;;;;;;;;;;;;-0.19;100.00;100528.69;5078536;28;19928;-74
2020/12/25 05:35:51;;;;;;;;;;;;;;;-0.26;100.00;100526.41;5078163;28;19924;-74
2020/12/25 05:38:18;;;;;;;;;;;;;;;-0.31;100.00;100528.50;5078302;28;19993;-74
2020/12/25 05:40:44;;;;;;;;;;;;;;;-0.27;100.00;100510.22;5096265;28;19928;-74
2020/12/25 05:43:15;;;;;;;;;;;;;;;-0.34;100.00;100520.88;5078295;28;19931;-74
2020/12/25 05:45:42;;;;;;;;;;;;;;;-0.32;100.00;100513.94;5096260;28;19928;-74
2020/12/25 05:48:09;;;;;;;;;;;;;;;-0.34;100.00;100516.22;5096223;28;19924;-74
2020/12/25 05:50:36;;;;;;;;;;;;;;;-0.20;100.00;100518.84;5095700;28;19924;-74
2020/12/25 05:53:03;;;;;;;;;;;;;;;-0.15;100.00;100524.19;5077886;28;19924;-74
2020/12/25 05:55:30;;;;;;;;;;;;;;;-0.11;100.00;100519.69;5096221;28;19930;-74
2020/12/25 05:57:57;;;;;;;;;;;;;;;-0.10;100.00;100521.28;5096060;28;19924;-74
2020/12/25 06:00:24;;;;;;;;;;;;;;;-0.20;100.00;100510.59;5095866;28;20340;-74
2020/12/25 06:02:52;;;;;;;;;;;;;;;-0.21;100.00;100519.94;5078096;28;19931;-74
2020/12/25 06:05:19;;;;;;;;;;;;;;;-0.27;100.00;100511.06;5095811;28;20501;-73
2020/12/25 06:07:48;;;;;;;;;;;;;;;-0.23;100.00;100516.72;5077614;28;19934;-76
2020/12/25 06:10:18;;;;;;;;;;;;;;;-0.22;100.00;100508.16;5061307;28;19931;-74
2020/12/25 06:12:45;;;;;;;;;;;;;;;-0.22;100.00;100512.84;5094962;28;19924;-72
2020/12/25 06:15:26;;;;;;;;;;;;;;;-0.22;100.00;100515.59;5095615;28;19974;-72
2020/12/25 06:18:03;;;;;;;;;;;;;;;-0.25;100.00;100529.97;5095390;28;20448;-74
2020/12/25 06:20:33;;;;;;;;;;;;;;;-0.23;100.00;100517.53;5077578;28;19992;-75
2020/12/25 06:23:01;;;;;;;;;;;;;;;-0.24;100.00;100520.59;5095504;28;20017;-73
2020/12/25 06:25:28;;;;;;;;;;;;;;;-0.20;100.00;100518.84;5077442;28;19924;-73
2020/12/25 06:27:59;;;;;;;;;;;;;;;-0.18;100.00;100513.81;5095242;28;20394;-73
2020/12/25 06:30:32;;;;;;;;;;;;;;;-0.17;100.00;100516.25;5095447;28;20030;-73
2020/12/25 06:32:58;;;;;;;;;;;;;;;-0.29;100.00;100507.00;5095094;28;20107;-73
2020/12/25 06:35:32;;;;;;;;;;;;;;;-0.14;100.00;100515.63;5077617;28;19953;-73
2020/12/25 06:37:59;;;;;;;;;;;;;;;-0.15;100.00;100513.19;5077429;28;19924;-73
2020/12/25 06:40:26;;;;;;;;;;;;;;;-0.13;100.00;100510.94;5095144;28;20005;-73
2020/12/25 06:42:53;;;;;;;;;;;;;;;0.00;100.00;100504.53;5077194;28;19935;-73
2020/12/25 06:45:26;;;;;;;;;;;;;;;-0.01;100.00;100513.88;5095115;28;19928;-73
2020/12/25 06:48:09;;;;;;;;;;;;;;;0.05;100.00;100498.88;5094883;28;19928;-73
2020/12/25 06:50:39;;;;;;;;;;;;;;;0.08;100.00;100500.97;5095132;28;19931;-73
2020/12/25 06:53:06;;;;;;;;;;;;;;;0.16;100.00;100507.63;5094816;28;19928;-73
2020/12/25 06:55:40;;;;;;;;;;;;;;;0.22;100.00;100518.16;5076953;28;19927;-73
2020/12/25 06:58:08;;;;;;;;;;;;;;;0.24;100.00;100523.34;5093845;28;19924;-73
2020/12/25 07:00:34;;;;;;;;;;;;;;;0.20;100.00;100506.66;5094883;28;19924;-73
2020/12/25 07:03:11;;;;;;;;;;;;;;;0.22;100.00;100500.84;5094375;28;19924;-73
2020/12/25 07:05:47;;;;;;;;;;;;;;;0.17;100.00;100510.06;5076874;28;19930;-73
2020/12/25 07:08:33;;;;;;;;;;;;;;;0.11;100.00;100514.06;5075053;28;20325;-73
2020/12/25 07:11:01;;;;;;;;;;;;;;;0.02;100.00;100521.50;5059828;28;20289;-73
2020/12/25 07:13:29;;;;;;;;;;;;;;;-0.04;100.00;100511.78;5076667;28;19924;-73
2020/12/25 07:15:55;;;;;;;;;;;;;;;0.03;100.00;100510.19;5094325;28;19924;-73
2020/12/25 07:18:22;;;;;;;;;;;;;;;-0.02;100.00;100506.78;5094532;28;20027;-73
2020/12/25 07:20:49;;;;;;;;;;;;;;;-0.01;100.00;100503.72;5059557;28;20303;-73
2020/12/25 07:23:15;;;;;;;;;;;;;;;0.06;100.00;100503.25;5094188;28;19928;-73
2020/12/25 07:25:44;;;;;;;;;;;;;;;0.03;100.00;100493.69;5093538;28;21389;-72
2020/12/25 07:28:10;;;;;;;;;;;;;;;0.08;100.00;100500.97;5094153;28;20375;-73
2020/12/25 07:30:36;;;;;;;;;;;;;;;0.11;100.00;100503.09;5093786;28;20317;-73
2020/12/25 07:33:04;;;;;;;;;;;;;;;0.15;100.00;100500.50;5093955;28;20435;-73
2020/12/25 07:35:30;;;;;;;;;;;;;;;0.18;100.00;100495.19;5094193;28;19963;-73
2020/12/25 07:37:57;;;;;;;;;;;;;;;0.17;100.00;100499.06;5094090;28;19924;-73
2020/12/25 07:40:23;;;;;;;;;;;;;;;0.17;100.00;100501.81;5093994;28;19955;-72
2020/12/25 07:42:50;;;;;;;;;;;;;;;0.14;100.00;100496.16;5093884;28;19930;-73
2020/12/25 07:45:17;;;;;;;;;;;;;;;0.07;100.00;100493.88;5093481;28;19928;-72
2020/12/25 07:47:43;;;;;;;;;;;;;;;0.02;100.00;100496.75;5075973;28;20009;-73
2020/12/25 07:50:09;;;;;;;;;;;;;;;0.02;100.00;100490.47;5076031;28;19931;-71
2020/12/25 07:52:36;;;;;;;;;;;;;;;-0.13;100.00;100486.22;5093848;28;19924;-72
2020/12/25 07:55:23;;;;;;;;;;;;;;;-0.10;100.00;100482.81;5093199;28;20361;-71
2020/12/25 07:57:50;;;;;;;;;;;;;;;-0.28;100.00;100492.16;5093736;28;19977;-72
2020/12/25 08:00:16;;;;;;;;;;;;;;;-0.25;100.00;100497.81;5093220;28;19950;-72
2020/12/25 08:02:46;;;;;;;;;;;;;;;-0.35;100.00;100494.56;5074955;28;19928;-73
2020/12/25 08:05:16;;;;;;;;;;;;;;;-0.43;100.00;100492.56;5059466;28;19928;-73
2020/12/25 08:10:59;;;;;;;;;;;;;;;-0.59;100.00;100503.16;5075855;28;19950;-73
2020/12/25 08:17:34;;;;;;;;;;;;;;;-0.26;100.00;100498.13;5094733;28;19931;-74
2020/12/25 08:20:02;;;;;;;;;;;;;;;-0.40;100.00;100501.00;5071148;28;19924;-73
2020/12/25 08:22:29;;;;;;;;;;;;;;;-0.45;100.00;100500.31;5101885;28;20075;-74
2020/12/25 08:24:56;;;;;;;;;;;;;;;-0.26;100.00;100511.88;5103481;28;19924;-73
2020/12/25 08:27:23;;;;;;;;;;;;;;;-0.11;100.00;100503.19;5084937;28;20326;-73
2020/12/25 08:29:51;;;;;;;;;;;;;;;0.09;100.00;100499.88;5088366;28;19924;-74
2020/12/25 08:32:17;;;;;;;;;;;;;;;0.18;100.00;100497.94;5072380;28;20333;-74
2020/12/25 08:34:44;;;;;;;;;;;;;;;0.26;100.00;100494.38;5088797;28;20445;-73
2020/12/25 08:37:14;;;;;;;;;;;;;;;0.36;100.00;100499.59;5088930;28;20325;-73
2020/12/25 08:39:40;;;;;;;;;;;;;;;0.39;100.00;100498.94;5089255;28;19924;-73
2020/12/25 08:42:09;;;;;;;;;;;;;;;0.59;100.00;100494.75;5089426;28;19924;-73
2020/12/25 08:44:36;;;;;;;;;;;;;;;0.73;100.00;100496.19;5088419;28;19997;-73
2020/12/25 08:47:09;;;;;;;;;;;;;;;0.69;100.00;100498.00;5090015;28;20280;-74
2020/12/25 08:49:36;;;;;;;;;;;;;;;0.52;100.00;100500.72;5089696;28;19935;-74
2020/12/25 08:52:03;;;;;;;;;;;;;;;0.14;100.00;100494.19;5088871;28;19959;-74
2020/12/25 08:54:30;;;;;;;;;;;;;;;0.16;100.00;100502.94;5088932;28;19924;-74
2020/12/25 08:56:57;;;;;;;;;;;;;;;0.07;100.00;100504.88;5088866;28;20014;-73
2020/12/25 08:59:24;;;;;;;;;;;;;;;0.06;100.00;100503.25;5084508;28;19924;-74
2020/12/25 09:01:51;;;;;;;;;;;;;;;0.41;100.00;100509.63;5073832;28;20377;-74
2020/12/25 09:04:22;;;;;;;;;;;;;;;0.48;100.00;100505.25;5089310;28;19935;-74
2020/12/25 09:06:50;;;;;;;;;;;;;;;0.51;100.00;100492.78;5093306;28;19972;-74
2020/12/25 09:09:26;;;;;;;;;;;;;;;0.59;100.00;100501.03;5085095;28;19931;-73
2020/12/25 09:11:52;;;;;;;;;;;;;;;0.54;100.00;100498.47;5058370;28;19932;-73
2020/12/25 09:14:19;;;;;;;;;;;;;;;0.51;100.00;100503.81;5093102;28;20413;-73
2020/12/25 09:16:47;;;;;;;;;;;;;;;0.56;100.00;100500.91;5093611;28;19931;-73
2020/12/25 09:19:15;;;;;;;;;;;;;;;0.55;100.00;100505.59;5100218;28;20016;-72
2020/12/25 09:21:41;;;;;;;;;;;;;;;0.56;100.00;100498.94;5062109;28;21004;-72
2020/12/25 09:24:08;;;;;;;;;;;;;;;0.57;100.00;100508.00;5090070;28;20321;-73
2020/12/25 09:26:35;;;;;;;;;;;;;;;0.62;100.00;100503.16;5095152;28;19954;-73
2020/12/25 09:29:02;;;;;;;;;;;;;;;0.51;100.00;100492.78;5088569;28;19935;-73
2020/12/25 09:31:29;;;;;;;;;;;;;;;0.60;100.00;100497.19;5079212;28;19932;-73
2020/12/25 09:33:55;;;;;;;;;;;;;;;0.50;100.00;100494.72;5074199;28;20019;-72
2020/12/25 09:36:22;;;;;;;;;;;;;;;0.50;100.00;100497.47;5076412;28;19924;-72
2020/12/25 09:38:48;;;;;;;;;;;;;;;0.51;100.00;100495.53;5101782;28;19923;-73
2020/12/25 09:41:15;;;;;;;;;;;;;;;0.47;100.00;100494.59;5101911;28;20439;-72
2020/12/25 09:43:42;;;;;;;;;;;;;;;0.40;100.00;100495.06;5071698;28;19990;-72
2020/12/25 09:46:09;;;;;;;;;;;;;;;0.51;100.00;100510.13;5095406;28;19924;-73
2020/12/25 09:48:36;;;;;;;;;;;;;;;0.49;100.00;100495.88;5077522;28;19924;-72
2020/12/25 09:51:03;;;;;;;;;;;;;;;0.51;100.00;100493.63;5101598;28;20010;-73
2020/12/25 09:53:29;;;;;;;;;;;;;;;0.47;100.00;100497.34;5093520;28;19928;-72
2020/12/25 09:55:56;;;;;;;;;;;;;;;0.52;100.00;100495.22;5057113;28;19924;-72
2020/12/25 09:58:22;;;;;;;;;;;;;;;0.53;100.00;100499.59;5055404;28;20491;-73
2020/12/25 10:00:52;;;;;;;;;;;;;;;0.50;100.00;100494.72;5106653;28;19924;-72
2020/12/25 10:03:18;;;;;;;;;;;;;;;0.48;100.00;100498.94;5091670;28;19963;-73
2020/12/25 10:05:45;;;;;;;;;;;;;;;0.56;100.00;100507.19;5056738;28;19928;-74
2020/12/25 10:08:12;;;;;;;;;;;;;;;0.63;100.00;100513.03;5078651;28;19924;-74
2020/12/25 10:10:38;;;;;;;;;;;;;;;0.57;100.00;100502.50;5091998;28;19928;-74
2020/12/25 10:13:07;;;;;;;;;;;;;;;0.53;100.00;100512.53;5099807;28;19924;-74
2020/12/25 10:15:34;;;;;;;;;;;;;;;0.45;100.00;100505.91;5091311;28;20352;-74
2020/12/25 10:18:00;;;;;;;;;;;;;;;0.42;100.00;100511.22;5095459;28;20307;-73
2020/12/25 10:20:27;;;;;;;;;;;;;;;0.47;100.00;100514.63;5106725;28;19928;-73
2020/12/25 10:22:53;;;;;;;;;;;;;;;0.44;100.00;100517.22;5105738;28;20302;-73
2020/12/25 10:25:21;;;;;;;;;;;;;;;0.43;100.00;100510.09;5091795;28;19924;-73
2020/12/25 10:27:47;;;;;;;;;;;;;;;0.60;100.00;100510.94;5079254;28;19932;-73
2020/12/25 10:30:14;;;;;;;;;;;;;;;0.53;100.00;100507.84;5092636;28;19924;-74
2020/12/25 10:32:41;;;;;;;;;;;;;;;0.61;100.00;100496.03;5099535;28;19977;-74
2020/12/25 10:35:08;;;;;;;;;;;;;;;0.60;100.00;100497.19;5083302;28;19958;-73
2020/12/25 10:37:35;;;;;;;;;;;;;;;0.64;100.00;100492.63;5100986;28;20337;-73
2020/12/25 10:40:02;;;;;;;;;;;;;;;0.69;100.00;100489.72;5105230;28;20018;-73
2020/12/25 10:42:29;;;;;;;;;;;;;;;0.60;100.00;100480.69;5092540;28;19928;-73
2020/12/25 10:44:55;;;;;;;;;;;;;;;0.61;100.00;100487.78;5078789;28;20016;-74
2020/12/25 10:47:27;;;;;;;;;;;;;;;0.69;100.00;100489.72;5078395;28;19977;-73
2020/12/25 10:49:54;;;;;;;;;;;;;;;0.74;100.00;100484.06;5086496;28;19961;-73
2020/12/25 10:52:21;;;;;;;;;;;;;;;0.86;100.00;100483.41;5106085;28;19924;-73
2020/12/25 10:54:48;;;;;;;;;;;;;;;0.93;100.00;100479.03;5073338;28;19947;-73
2020/12/25 10:57:15;;;;;;;;;;;;;;;0.93;100.00;100472.69;5097940;28;19928;-74
2020/12/25 10:59:42;;;;;;;;;;;;;;;0.98;100.00;100476.13;5100153;28;19959;-73
2020/12/25 11:02:08;;;;;;;;;;;;;;;0.99;100.00;100463.97;5106314;28;19931;-73
2020/12/25 11:04:35;;;;;;;;;;;;;;;1.05;100.00;100459.91;5093326;28;19931;-73
2020/12/25 11:07:03;;;;;;;;;;;;;;;1.19;100.00;100460.53;5102109;28;19928;-72
2020/12/25 11:09:30;;;;;;;;;;;;;;;1.24;100.00;100463.09;5080393;28;20314;-72
2020/12/25 11:11:57;;;;;;;;;;;;;;;1.32;100.00;100461.44;5077134;28;19931;-72
2020/12/25 11:14:23;;;;;;;;;;;;;;;1.46;100.00;100453.78;5106452;28;20161;-73
2020/12/25 11:16:50;;;;;;;;;;;;;;;1.61;100.00;100450.47;5075027;28;19946;-73
2020/12/25 11:19:17;;;;;;;;;;;;;;;1.69;100.00;100450.47;5100671;28;19932;-73
2020/12/25 11:21:44;;;;;;;;;;;;;;;1.68;100.00;100456.28;5101460;28;19924;-72
2020/12/25 11:24:12;;;;;;;;;;;;;;;1.60;100.00;100446.94;5092817;28;19935;-73
2020/12/25 11:26:39;;;;;;;;;;;;;;;1.58;100.00;100446.44;5105762;28;20387;-74
2020/12/25 11:29:06;;;;;;;;;;;;;;;1.61;100.00;100443.03;5095672;28;19928;-73
2020/12/25 11:31:34;;;;;;;;;;;;;;;1.68;100.00;100450.78;5098238;28;19981;-74
2020/12/25 11:34:00;;;;;;;;;;;;;;;1.79;100.00;100447.31;5085431;28;19924;-74
2020/12/25 11:36:29;;;;;;;;;;;;;;;1.87;100.00;100440.13;5093968;28;19934;-73
2020/12/25 11:38:56;;;;;;;;;;;;;;;1.81;100.00;100445.03;5092586;28;19963;-74
2020/12/25 11:41:23;;;;;;;;;;;;;;;1.94;100.00;100434.09;5081811;28;19924;-74
2020/12/25 11:43:50;;;;;;;;;;;;;;;1.94;100.00;100434.09;5066905;28;19928;-73
2020/12/25 11:46:17;;;;;;;;;;;;;;;2.07;100.00;100441.31;5091548;28;19931;-74
2020/12/25 11:48:44;;;;;;;;;;;;;;;2.08;100.00;100431.88;5058165;28;19930;-73
2020/12/25 11:51:17;;;;;;;;;;;;;;;2.00;100.00;100438.28;5083785;28;20214;-73
2020/12/25 11:53:44;;;;;;;;;;;;;;;2.04;100.00;100437.28;5099961;28;19939;-73
2020/12/25 11:56:11;;;;;;;;;;;;;;;2.20;100.00;100443.00;5074500;28;20345;-73
2020/12/25 11:58:38;;;;;;;;;;;;;;;2.18;100.00;100442.53;5079401;28;20000;-75
2020/12/25 12:01:04;;;;;;;;;;;;;;;2.31;100.00;100436.75;5077900;28;20015;-75
2020/12/25 12:03:31;;;;;;;;;;;;;;;2.32;100.00;100429.31;5098460;28;19924;-74
2020/12/25 12:05:57;;;;;;;;;;;;;;;2.24;100.00;100435.69;5055173;28;19935;-74
2020/12/25 12:08:24;;;;;;;;;;;;;;;2.17;100.00;100424.38;5104749;28;19923;-75
2020/12/25 12:10:51;;;;;;;;;;;;;;;2.22;100.00;100419.47;5091319;28;19934;-74
2020/12/25 12:13:17;;;;;;;;;;;;;;;2.25;100.00;100409.72;5089015;28;19924;-75
2020/12/25 12:15:45;;;;;;;;;;;;;;;2.34;100.00;100413.22;5095041;28;19997;-75
2020/12/25 12:18:11;;;;;;;;;;;;;;;2.40;100.00;100406.34;5086987;28;19935;-77
2020/12/25 12:20:38;;;;;;;;;;;;;;;2.49;100.00;100409.84;5092688;28;19931;-76
2020/12/25 12:23:05;;;;;;;;;;;;;;;2.63;100.00;100408.44;5094315;28;19990;-76
2020/12/25 12:25:33;;;;;;;;;;;;;;;2.63;100.00;100399.31;5080067;28;19952;-77
2020/12/25 12:28:02;;;;;;;;;;;;;;;2.68;100.00;100399.13;5062024;28;19924;-76
2020/12/25 12:30:32;;;;;;;;;;;;;;;2.80;100.00;100412.97;5057257;28;19925;-76
2020/12/25 12:33:00;;;;;;;;;;;;;;;2.82;100.00;100410.66;5057133;28;20067;-77
2020/12/25 12:35:26;;;;;;;;;;;;;;;2.87;100.00;100407.69;5047780;28;20036;-75
2020/12/25 12:37:53;;;;;;;;;;;;;;;2.83;100.00;100402.03;5055354;28;19936;-75
2020/12/25 12:40:20;;;;;;;;;;;;;;;2.71;100.00;100401.22;5049108;28;20398;-76
2020/12/25 12:42:46;;;;;;;;;;;;;;;2.75;100.00;100391.09;5051435;28;19928;-75